sensor_id;sensor_type;location;lat;lon;timestamp;P1;durP1;ratioP1;P2;durP2;ratioP2
1454;SDS011;721;48.168;12.818;2022-08-18T00:02:12;5.53;;;4.63;;
1454;SDS011;721;48.168;12.818;2022-08-18T00:04:41;4.83;;;4.50;;
1454;SDS011;721;48.168;12.818;2022-08-18T00:07:12;4.80;;;4.40;;
1454;SDS011;721;48.168;12.818;2022-08-18T00:09:40;4.30;;;3.70;;
1454;SDS011;721;48.168;12.818;2022-08-18T00:12:09;5.97;;;4.40;;
1454;SDS011;721;48.168;12.818;2022-08-18T00:14:41;5.60;;;4.30;;
1454;SDS011;721;48.168;12.818;2022-08-18T00:17:09;5.00;;;3.80;;
1454;SDS011;721;48.168;12.818;2022-08-18T00:19:36;4.90;;;4.20;;
1454;SDS011;721;48.168;12.818;2022-08-18T00:22:03;4.83;;;4.13;;
1454;SDS011;721;48.168;12.818;2022-08-18T00:24:30;4.53;;;4.13;;
1454;SDS011;721;48.168;12.818;2022-08-18T00:26:56;4.20;;;3.70;;
1454;SDS011;721;48.168;12.818;2022-08-18T00:29:23;4.53;;;4.23;;
1454;SDS011;721;48.168;12.818;2022-08-18T00:31:52;5.20;;;4.80;;
1454;SDS011;721;48.168;12.818;2022-08-18T00:34:19;3.93;;;3.63;;
1454;SDS011;721;48.168;12.818;2022-08-18T00:36:45;4.27;;;3.97;;
1454;SDS011;721;48.168;12.818;2022-08-18T00:39:14;4.13;;;3.70;;
1454;SDS011;721;48.168;12.818;2022-08-18T00:41:41;5.20;;;4.80;;
1454;SDS011;721;48.168;12.818;2022-08-18T00:44:09;4.90;;;4.50;;
1454;SDS011;721;48.168;12.818;2022-08-18T00:46:40;5.80;;;4.20;;
1454;SDS011;721;48.168;12.818;2022-08-18T00:49:09;4.67;;;4.27;;
1454;SDS011;721;48.168;12.818;2022-08-18T00:51:37;5.97;;;5.00;;
1454;SDS011;721;48.168;12.818;2022-08-18T00:54:11;4.00;;;3.70;;
1454;SDS011;721;48.168;12.818;2022-08-18T00:56:41;7.33;;;4.40;;
1454;SDS011;721;48.168;12.818;2022-08-18T00:59:10;4.37;;;4.07;;
1454;SDS011;721;48.168;12.818;2022-08-18T01:01:42;4.73;;;4.17;;
1454;SDS011;721;48.168;12.818;2022-08-18T01:04:14;4.00;;;3.70;;
1454;SDS011;721;48.168;12.818;2022-08-18T01:06:46;4.97;;;4.57;;
1454;SDS011;721;48.168;12.818;2022-08-18T01:09:17;8.23;;;5.10;;
1454;SDS011;721;48.168;12.818;2022-08-18T01:11:44;4.80;;;4.40;;
1454;SDS011;721;48.168;12.818;2022-08-18T01:14:11;4.30;;;4.00;;
1454;SDS011;721;48.168;12.818;2022-08-18T01:16:40;5.33;;;4.60;;
1454;SDS011;721;48.168;12.818;2022-08-18T01:19:26;4.80;;;4.20;;
1454;SDS011;721;48.168;12.818;2022-08-18T01:22:14;4.60;;;4.20;;
1454;SDS011;721;48.168;12.818;2022-08-18T01:24:47;4.40;;;4.10;;
1454;SDS011;721;48.168;12.818;2022-08-18T01:27:34;5.13;;;4.67;;
1454;SDS011;721;48.168;12.818;2022-08-18T01:30:03;4.57;;;4.17;;
1454;SDS011;721;48.168;12.818;2022-08-18T01:32:33;5.93;;;4.63;;
1454;SDS011;721;48.168;12.818;2022-08-18T01:35:01;6.40;;;4.37;;
1454;SDS011;721;48.168;12.818;2022-08-18T01:37:29;4.70;;;4.40;;
1454;SDS011;721;48.168;12.818;2022-08-18T01:39:57;3.87;;;3.60;;
1454;SDS011;721;48.168;12.818;2022-08-18T01:42:24;5.60;;;5.10;;
1454;SDS011;721;48.168;12.818;2022-08-18T01:44:51;8.03;;;5.23;;
1454;SDS011;721;48.168;12.818;2022-08-18T01:47:18;5.23;;;4.73;;
1454;SDS011;721;48.168;12.818;2022-08-18T01:49:45;5.50;;;5.10;;
1454;SDS011;721;48.168;12.818;2022-08-18T01:52:13;5.83;;;4.90;;
1454;SDS011;721;48.168;12.818;2022-08-18T01:54:44;5.90;;;4.53;;
1454;SDS011;721;48.168;12.818;2022-08-18T01:57:13;7.57;;;5.00;;
1454;SDS011;721;48.168;12.818;2022-08-18T01:59:41;5.47;;;5.00;;
1454;SDS011;721;48.168;12.818;2022-08-18T02:02:08;6.80;;;5.23;;
1454;SDS011;721;48.168;12.818;2022-08-18T02:04:39;6.47;;;5.87;;
1454;SDS011;721;48.168;12.818;2022-08-18T02:07:08;8.53;;;5.80;;
1454;SDS011;721;48.168;12.818;2022-08-18T02:09:36;5.73;;;5.30;;
1454;SDS011;721;48.168;12.818;2022-08-18T02:12:06;6.20;;;5.60;;
1454;SDS011;721;48.168;12.818;2022-08-18T02:14:34;6.87;;;5.73;;
1454;SDS011;721;48.168;12.818;2022-08-18T02:17:03;6.87;;;6.37;;
1454;SDS011;721;48.168;12.818;2022-08-18T02:19:33;6.90;;;6.30;;
1454;SDS011;721;48.168;12.818;2022-08-18T02:22:01;6.10;;;5.70;;
1454;SDS011;721;48.168;12.818;2022-08-18T02:24:28;7.37;;;6.87;;
1454;SDS011;721;48.168;12.818;2022-08-18T02:26:55;7.37;;;6.63;;
1454;SDS011;721;48.168;12.818;2022-08-18T02:29:22;7.83;;;7.20;;
1454;SDS011;721;48.168;12.818;2022-08-18T02:31:51;7.83;;;7.03;;
1454;SDS011;721;48.168;12.818;2022-08-18T02:34:18;10.27;;;6.93;;
1454;SDS011;721;48.168;12.818;2022-08-18T02:36:45;7.60;;;6.90;;
1454;SDS011;721;48.168;12.818;2022-08-18T02:39:12;8.00;;;7.20;;
1454;SDS011;721;48.168;12.818;2022-08-18T02:41:39;8.63;;;7.83;;
1454;SDS011;721;48.168;12.818;2022-08-18T02:44:06;7.50;;;6.80;;
1454;SDS011;721;48.168;12.818;2022-08-18T02:46:34;8.30;;;7.20;;
1454;SDS011;721;48.168;12.818;2022-08-18T02:49:03;7.90;;;7.00;;
1454;SDS011;721;48.168;12.818;2022-08-18T02:51:31;8.23;;;7.43;;
1454;SDS011;721;48.168;12.818;2022-08-18T02:53:58;9.50;;;8.50;;
1454;SDS011;721;48.168;12.818;2022-08-18T02:56:27;9.83;;;7.80;;
1454;SDS011;721;48.168;12.818;2022-08-18T02:58:56;7.83;;;7.03;;
1454;SDS011;721;48.168;12.818;2022-08-18T03:01:26;7.63;;;6.93;;
1454;SDS011;721;48.168;12.818;2022-08-18T03:03:56;8.30;;;6.90;;
1454;SDS011;721;48.168;12.818;2022-08-18T03:06:26;8.00;;;7.20;;
1454;SDS011;721;48.168;12.818;2022-08-18T03:09:11;7.70;;;7.10;;
1454;SDS011;721;48.168;12.818;2022-08-18T03:11:41;8.43;;;7.63;;
1454;SDS011;721;48.168;12.818;2022-08-18T03:14:11;7.13;;;6.27;;
1454;SDS011;721;48.168;12.818;2022-08-18T03:16:40;7.83;;;7.13;;
1454;SDS011;721;48.168;12.818;2022-08-18T03:19:10;7.33;;;6.50;;
1454;SDS011;721;48.168;12.818;2022-08-18T03:21:41;8.20;;;7.60;;
1454;SDS011;721;48.168;12.818;2022-08-18T03:24:10;7.23;;;6.63;;
1454;SDS011;721;48.168;12.818;2022-08-18T03:26:39;7.50;;;6.90;;
1454;SDS011;721;48.168;12.818;2022-08-18T03:29:08;7.77;;;7.07;;
1454;SDS011;721;48.168;12.818;2022-08-18T03:31:36;7.07;;;6.43;;
1454;SDS011;721;48.168;12.818;2022-08-18T03:34:03;6.67;;;6.07;;
1454;SDS011;721;48.168;12.818;2022-08-18T03:36:32;7.33;;;6.73;;
1454;SDS011;721;48.168;12.818;2022-08-18T03:39:03;7.10;;;6.60;;
1454;SDS011;721;48.168;12.818;2022-08-18T03:41:32;8.63;;;7.60;;
1454;SDS011;721;48.168;12.818;2022-08-18T03:44:00;7.60;;;6.93;;
1454;SDS011;721;48.168;12.818;2022-08-18T03:46:27;6.77;;;6.17;;
1454;SDS011;721;48.168;12.818;2022-08-18T03:48:56;8.10;;;7.50;;
1454;SDS011;721;48.168;12.818;2022-08-18T03:51:26;7.07;;;6.40;;
1454;SDS011;721;48.168;12.818;2022-08-18T03:53:57;7.33;;;6.83;;
1454;SDS011;721;48.168;12.818;2022-08-18T03:56:28;7.07;;;6.57;;
1454;SDS011;721;48.168;12.818;2022-08-18T03:59:00;7.43;;;6.70;;
1454;SDS011;721;48.168;12.818;2022-08-18T04:01:30;8.03;;;7.37;;
1454;SDS011;721;48.168;12.818;2022-08-18T04:04:00;8.03;;;7.23;;
1454;SDS011;721;48.168;12.818;2022-08-18T04:06:30;7.40;;;6.80;;
1454;SDS011;721;48.168;12.818;2022-08-18T04:09:00;7.87;;;7.10;;
1454;SDS011;721;48.168;12.818;2022-08-18T04:11:32;7.33;;;6.43;;
1454;SDS011;721;48.168;12.818;2022-08-18T04:14:00;7.40;;;6.87;;
1454;SDS011;721;48.168;12.818;2022-08-18T04:16:28;6.83;;;6.10;;
1454;SDS011;721;48.168;12.818;2022-08-18T04:18:57;9.10;;;6.93;;
1454;SDS011;721;48.168;12.818;2022-08-18T04:21:27;7.50;;;6.73;;
1454;SDS011;721;48.168;12.818;2022-08-18T04:23:55;8.10;;;7.40;;
1454;SDS011;721;48.168;12.818;2022-08-18T04:26:25;7.30;;;6.40;;
1454;SDS011;721;48.168;12.818;2022-08-18T04:28:54;7.70;;;7.10;;
1454;SDS011;721;48.168;12.818;2022-08-18T04:31:21;7.50;;;6.70;;
1454;SDS011;721;48.168;12.818;2022-08-18T04:33:49;7.40;;;6.80;;
1454;SDS011;721;48.168;12.818;2022-08-18T04:36:15;7.50;;;6.77;;
1454;SDS011;721;48.168;12.818;2022-08-18T04:38:42;7.17;;;6.57;;
1454;SDS011;721;48.168;12.818;2022-08-18T04:41:13;8.10;;;7.50;;
1454;SDS011;721;48.168;12.818;2022-08-18T04:43:40;8.53;;;7.93;;
1454;SDS011;721;48.168;12.818;2022-08-18T04:46:11;10.83;;;6.70;;
1454;SDS011;721;48.168;12.818;2022-08-18T04:48:39;7.60;;;6.80;;
1454;SDS011;721;48.168;12.818;2022-08-18T04:51:09;8.87;;;7.70;;
1454;SDS011;721;48.168;12.818;2022-08-18T04:53:38;7.67;;;6.83;;
1454;SDS011;721;48.168;12.818;2022-08-18T04:56:15;7.97;;;7.10;;
1454;SDS011;721;48.168;12.818;2022-08-18T04:58:50;8.43;;;7.83;;
1454;SDS011;721;48.168;12.818;2022-08-18T05:01:21;7.97;;;7.17;;
1454;SDS011;721;48.168;12.818;2022-08-18T05:03:50;8.40;;;7.70;;
1454;SDS011;721;48.168;12.818;2022-08-18T05:06:18;7.87;;;7.23;;
1454;SDS011;721;48.168;12.818;2022-08-18T05:08:49;6.80;;;6.20;;
1454;SDS011;721;48.168;12.818;2022-08-18T05:11:17;7.27;;;6.73;;
1454;SDS011;721;48.168;12.818;2022-08-18T05:13:44;7.47;;;6.97;;
1454;SDS011;721;48.168;12.818;2022-08-18T05:16:11;7.67;;;6.40;;
1454;SDS011;721;48.168;12.818;2022-08-18T05:18:39;7.40;;;6.80;;
1454;SDS011;721;48.168;12.818;2022-08-18T05:21:06;7.33;;;6.73;;
1454;SDS011;721;48.168;12.818;2022-08-18T05:23:38;8.00;;;7.30;;
1454;SDS011;721;48.168;12.818;2022-08-18T05:26:05;7.80;;;7.00;;
1454;SDS011;721;48.168;12.818;2022-08-18T05:28:32;6.87;;;6.27;;
1454;SDS011;721;48.168;12.818;2022-08-18T05:31:05;7.80;;;7.10;;
1454;SDS011;721;48.168;12.818;2022-08-18T05:33:33;9.17;;;6.77;;
1454;SDS011;721;48.168;12.818;2022-08-18T05:36:03;7.10;;;6.40;;
1454;SDS011;721;48.168;12.818;2022-08-18T05:38:34;7.77;;;7.13;;
1454;SDS011;721;48.168;12.818;2022-08-18T05:41:07;7.00;;;6.50;;
1454;SDS011;721;48.168;12.818;2022-08-18T05:43:37;7.97;;;7.17;;
1454;SDS011;721;48.168;12.818;2022-08-18T05:46:06;8.80;;;7.00;;
1454;SDS011;721;48.168;12.818;2022-08-18T05:48:34;8.43;;;7.53;;
1454;SDS011;721;48.168;12.818;2022-08-18T05:51:06;7.00;;;6.50;;
1454;SDS011;721;48.168;12.818;2022-08-18T05:53:40;7.23;;;6.60;;
1454;SDS011;721;48.168;12.818;2022-08-18T05:56:27;7.40;;;6.80;;
1454;SDS011;721;48.168;12.818;2022-08-18T05:59:22;7.33;;;6.73;;
1454;SDS011;721;48.168;12.818;2022-08-18T06:01:54;7.23;;;6.50;;
1454;SDS011;721;48.168;12.818;2022-08-18T06:04:29;6.97;;;6.27;;
1454;SDS011;721;48.168;12.818;2022-08-18T06:07:06;7.57;;;6.67;;
1454;SDS011;721;48.168;12.818;2022-08-18T06:09:36;7.67;;;6.70;;
1454;SDS011;721;48.168;12.818;2022-08-18T06:12:21;7.00;;;6.37;;
1454;SDS011;721;48.168;12.818;2022-08-18T06:14:54;8.43;;;7.00;;
1454;SDS011;721;48.168;12.818;2022-08-18T06:17:31;7.63;;;7.03;;
1454;SDS011;721;48.168;12.818;2022-08-18T06:20:12;8.13;;;6.97;;
1454;SDS011;721;48.168;12.818;2022-08-18T06:22:50;6.97;;;6.37;;
1454;SDS011;721;48.168;12.818;2022-08-18T06:25:24;7.40;;;6.70;;
1454;SDS011;721;48.168;12.818;2022-08-18T06:27:59;7.23;;;6.40;;
1454;SDS011;721;48.168;12.818;2022-08-18T06:30:35;8.00;;;7.30;;
1454;SDS011;721;48.168;12.818;2022-08-18T06:33:11;7.07;;;6.47;;
1454;SDS011;721;48.168;12.818;2022-08-18T06:35:47;7.70;;;7.00;;
1454;SDS011;721;48.168;12.818;2022-08-18T06:38:25;6.97;;;6.40;;
1454;SDS011;721;48.168;12.818;2022-08-18T06:41:07;6.40;;;5.90;;
1454;SDS011;721;48.168;12.818;2022-08-18T06:43:37;6.43;;;5.93;;
1454;SDS011;721;48.168;12.818;2022-08-18T06:46:10;7.10;;;5.93;;
1454;SDS011;721;48.168;12.818;2022-08-18T06:48:43;6.20;;;5.70;;
1454;SDS011;721;48.168;12.818;2022-08-18T06:51:17;6.80;;;6.30;;
1454;SDS011;721;48.168;12.818;2022-08-18T06:53:54;6.47;;;6.00;;
1454;SDS011;721;48.168;12.818;2022-08-18T06:56:25;6.30;;;5.70;;
1454;SDS011;721;48.168;12.818;2022-08-18T06:59:12;6.43;;;6.03;;
1454;SDS011;721;48.168;12.818;2022-08-18T07:01:45;7.63;;;5.90;;
1454;SDS011;721;48.168;12.818;2022-08-18T07:04:28;7.23;;;6.63;;
1454;SDS011;721;48.168;12.818;2022-08-18T07:06:57;6.97;;;6.37;;
1454;SDS011;721;48.168;12.818;2022-08-18T07:09:33;6.17;;;5.17;;
1454;SDS011;721;48.168;12.818;2022-08-18T07:12:02;6.10;;;5.60;;
1454;SDS011;721;48.168;12.818;2022-08-18T07:14:31;6.87;;;6.33;;
1454;SDS011;721;48.168;12.818;2022-08-18T07:17:08;6.27;;;5.77;;
1454;SDS011;721;48.168;12.818;2022-08-18T07:19:36;5.80;;;5.20;;
1454;SDS011;721;48.168;12.818;2022-08-18T07:22:04;6.07;;;5.60;;
1454;SDS011;721;48.168;12.818;2022-08-18T07:24:33;7.17;;;6.57;;
1454;SDS011;721;48.168;12.818;2022-08-18T07:27:05;6.67;;;5.83;;
1454;SDS011;721;48.168;12.818;2022-08-18T07:29:34;7.87;;;6.10;;
1454;SDS011;721;48.168;12.818;2022-08-18T07:32:04;11.40;;;7.10;;
1454;SDS011;721;48.168;12.818;2022-08-18T07:34:37;7.40;;;5.67;;
1454;SDS011;721;48.168;12.818;2022-08-18T07:37:07;6.03;;;5.43;;
1454;SDS011;721;48.168;12.818;2022-08-18T07:39:42;10.33;;;6.43;;
1454;SDS011;721;48.168;12.818;2022-08-18T07:42:15;6.67;;;6.10;;
1454;SDS011;721;48.168;12.818;2022-08-18T07:44:49;7.03;;;6.43;;
1454;SDS011;721;48.168;12.818;2022-08-18T07:47:24;7.30;;;6.70;;
1454;SDS011;721;48.168;12.818;2022-08-18T07:49:57;7.30;;;6.70;;
1454;SDS011;721;48.168;12.818;2022-08-18T07:52:25;6.20;;;5.70;;
1454;SDS011;721;48.168;12.818;2022-08-18T07:55:05;5.30;;;4.90;;
1454;SDS011;721;48.168;12.818;2022-08-18T07:57:41;6.10;;;5.60;;
1454;SDS011;721;48.168;12.818;2022-08-18T08:00:15;6.90;;;6.30;;
1454;SDS011;721;48.168;12.818;2022-08-18T08:02:48;5.50;;;5.00;;
1454;SDS011;721;48.168;12.818;2022-08-18T08:05:28;5.50;;;5.20;;
1454;SDS011;721;48.168;12.818;2022-08-18T08:08:05;6.90;;;5.87;;
1454;SDS011;721;48.168;12.818;2022-08-18T08:10:46;9.10;;;6.30;;
1454;SDS011;721;48.168;12.818;2022-08-18T08:13:21;7.07;;;6.03;;
1454;SDS011;721;48.168;12.818;2022-08-18T08:16:00;6.17;;;5.67;;
1454;SDS011;721;48.168;12.818;2022-08-18T08:18:32;5.77;;;5.37;;
1454;SDS011;721;48.168;12.818;2022-08-18T08:21:09;6.33;;;5.80;;
1454;SDS011;721;48.168;12.818;2022-08-18T08:23:43;5.33;;;4.90;;
1454;SDS011;721;48.168;12.818;2022-08-18T08:26:26;5.73;;;5.33;;
1454;SDS011;721;48.168;12.818;2022-08-18T08:29:04;7.27;;;6.57;;
1454;SDS011;721;48.168;12.818;2022-08-18T08:31:42;7.40;;;6.00;;
1454;SDS011;721;48.168;12.818;2022-08-18T08:34:15;5.93;;;5.50;;
1454;SDS011;721;48.168;12.818;2022-08-18T08:36:46;7.13;;;6.40;;
1454;SDS011;721;48.168;12.818;2022-08-18T08:39:18;6.87;;;6.27;;
1454;SDS011;721;48.168;12.818;2022-08-18T08:41:50;5.80;;;5.43;;
1454;SDS011;721;48.168;12.818;2022-08-18T08:44:20;6.20;;;5.77;;
1454;SDS011;721;48.168;12.818;2022-08-18T08:46:53;6.53;;;6.00;;
1454;SDS011;721;48.168;12.818;2022-08-18T08:49:25;6.87;;;6.17;;
1454;SDS011;721;48.168;12.818;2022-08-18T08:51:57;8.17;;;6.70;;
1454;SDS011;721;48.168;12.818;2022-08-18T08:54:28;5.70;;;5.20;;
1454;SDS011;721;48.168;12.818;2022-08-18T08:57:02;8.23;;;5.40;;
1454;SDS011;721;48.168;12.818;2022-08-18T08:59:30;6.40;;;5.80;;
1454;SDS011;721;48.168;12.818;2022-08-18T09:02:03;6.40;;;5.90;;
1454;SDS011;721;48.168;12.818;2022-08-18T09:04:48;7.43;;;6.73;;
1454;SDS011;721;48.168;12.818;2022-08-18T09:07:26;6.63;;;6.10;;
1454;SDS011;721;48.168;12.818;2022-08-18T09:10:20;6.20;;;5.70;;
1454;SDS011;721;48.168;12.818;2022-08-18T09:13:23;6.03;;;5.47;;
1454;SDS011;721;48.168;12.818;2022-08-18T09:16:21;6.53;;;5.97;;
1454;SDS011;721;48.168;12.818;2022-08-18T09:19:06;6.47;;;5.97;;
1454;SDS011;721;48.168;12.818;2022-08-18T09:21:42;6.17;;;5.57;;
1454;SDS011;721;48.168;12.818;2022-08-18T09:24:17;5.57;;;5.17;;
1454;SDS011;721;48.168;12.818;2022-08-18T09:26:49;6.50;;;6.00;;
1454;SDS011;721;48.168;12.818;2022-08-18T09:29:25;7.47;;;5.93;;
1454;SDS011;721;48.168;12.818;2022-08-18T09:32:32;6.00;;;5.50;;
1454;SDS011;721;48.168;12.818;2022-08-18T09:35:23;5.97;;;5.43;;
1454;SDS011;721;48.168;12.818;2022-08-18T09:38:13;7.80;;;7.00;;
1454;SDS011;721;48.168;12.818;2022-08-18T09:41:04;6.30;;;5.90;;
1454;SDS011;721;48.168;12.818;2022-08-18T09:43:53;7.30;;;6.70;;
1454;SDS011;721;48.168;12.818;2022-08-18T09:49:37;6.97;;;5.63;;
1454;SDS011;721;48.168;12.818;2022-08-18T10:04:18;6.53;;;5.93;;
1454;SDS011;721;48.168;12.818;2022-08-18T10:09:44;5.47;;;5.03;;
1454;SDS011;721;48.168;12.818;2022-08-18T10:15:27;6.40;;;5.80;;
1454;SDS011;721;48.168;12.818;2022-08-18T10:18:14;6.97;;;6.27;;
1454;SDS011;721;48.168;12.818;2022-08-18T10:21:02;6.40;;;5.90;;
1454;SDS011;721;48.168;12.818;2022-08-18T10:23:51;6.30;;;5.80;;
1454;SDS011;721;48.168;12.818;2022-08-18T10:38:23;5.97;;;5.57;;
1454;SDS011;721;48.168;12.818;2022-08-18T10:41:04;6.60;;;6.10;;
1454;SDS011;721;48.168;12.818;2022-08-18T10:43:39;6.03;;;5.63;;
1454;SDS011;721;48.168;12.818;2022-08-18T10:46:15;6.53;;;5.93;;
1454;SDS011;721;48.168;12.818;2022-08-18T10:48:56;13.27;;;6.90;;
1454;SDS011;721;48.168;12.818;2022-08-18T10:54:22;6.70;;;6.13;;
1454;SDS011;721;48.168;12.818;2022-08-18T10:57:04;7.00;;;6.40;;
1454;SDS011;721;48.168;12.818;2022-08-18T10:59:40;10.33;;;6.43;;
1454;SDS011;721;48.168;12.818;2022-08-18T11:02:15;5.97;;;5.57;;
1454;SDS011;721;48.168;12.818;2022-08-18T11:05:00;6.97;;;6.37;;
1454;SDS011;721;48.168;12.818;2022-08-18T11:07:30;5.93;;;5.53;;
1454;SDS011;721;48.168;12.818;2022-08-18T11:10:15;6.43;;;5.93;;
1454;SDS011;721;48.168;12.818;2022-08-18T11:12:48;7.13;;;5.97;;
1454;SDS011;721;48.168;12.818;2022-08-18T11:15:27;7.37;;;6.77;;
1454;SDS011;721;48.168;12.818;2022-08-18T11:18:08;6.33;;;5.90;;
1454;SDS011;721;48.168;12.818;2022-08-18T11:20:44;6.23;;;5.73;;
1454;SDS011;721;48.168;12.818;2022-08-18T11:23:12;5.77;;;5.33;;
1454;SDS011;721;48.168;12.818;2022-08-18T11:25:43;5.97;;;5.47;;
1454;SDS011;721;48.168;12.818;2022-08-18T11:28:13;6.17;;;5.73;;
1454;SDS011;721;48.168;12.818;2022-08-18T11:30:41;7.43;;;6.17;;
1454;SDS011;721;48.168;12.818;2022-08-18T11:33:12;6.47;;;5.87;;
1454;SDS011;721;48.168;12.818;2022-08-18T11:35:44;6.20;;;5.63;;
1454;SDS011;721;48.168;12.818;2022-08-18T11:38:14;6.07;;;5.67;;
1454;SDS011;721;48.168;12.818;2022-08-18T11:40:45;6.97;;;6.17;;
1454;SDS011;721;48.168;12.818;2022-08-18T11:43:15;6.53;;;6.03;;
1454;SDS011;721;48.168;12.818;2022-08-18T11:45:48;6.17;;;5.57;;
1454;SDS011;721;48.168;12.818;2022-08-18T11:48:21;6.00;;;5.40;;
1454;SDS011;721;48.168;12.818;2022-08-18T11:51:02;6.00;;;5.50;;
1454;SDS011;721;48.168;12.818;2022-08-18T11:53:38;6.00;;;5.53;;
1454;SDS011;721;48.168;12.818;2022-08-18T11:56:16;5.67;;;5.20;;
1454;SDS011;721;48.168;12.818;2022-08-18T11:58:50;6.30;;;5.83;;
1454;SDS011;721;48.168;12.818;2022-08-18T12:01:32;6.30;;;5.70;;
1454;SDS011;721;48.168;12.818;2022-08-18T12:04:07;6.10;;;5.60;;
1454;SDS011;721;48.168;12.818;2022-08-18T12:06:40;5.83;;;5.43;;
1454;SDS011;721;48.168;12.818;2022-08-18T12:09:22;6.37;;;5.87;;
1454;SDS011;721;48.168;12.818;2022-08-18T12:11:57;5.93;;;5.60;;
1454;SDS011;721;48.168;12.818;2022-08-18T12:14:26;6.20;;;5.57;;
1454;SDS011;721;48.168;12.818;2022-08-18T12:16:55;6.13;;;5.50;;
1454;SDS011;721;48.168;12.818;2022-08-18T12:19:22;5.90;;;5.40;;
1454;SDS011;721;48.168;12.818;2022-08-18T12:21:54;6.50;;;6.00;;
1454;SDS011;721;48.168;12.818;2022-08-18T12:24:23;6.60;;;6.20;;
1454;SDS011;721;48.168;12.818;2022-08-18T12:26:51;6.73;;;6.23;;
1454;SDS011;721;48.168;12.818;2022-08-18T12:29:20;6.00;;;5.50;;
1454;SDS011;721;48.168;12.818;2022-08-18T12:31:47;6.00;;;5.60;;
1454;SDS011;721;48.168;12.818;2022-08-18T12:34:16;6.40;;;5.90;;
1454;SDS011;721;48.168;12.818;2022-08-18T12:36:43;5.80;;;5.40;;
1454;SDS011;721;48.168;12.818;2022-08-18T12:39:11;8.40;;;6.23;;
1454;SDS011;721;48.168;12.818;2022-08-18T12:41:38;7.37;;;6.70;;
1454;SDS011;721;48.168;12.818;2022-08-18T12:44:08;6.43;;;6.00;;
1454;SDS011;721;48.168;12.818;2022-08-18T12:46:37;7.07;;;6.57;;
1454;SDS011;721;48.168;12.818;2022-08-18T12:49:04;6.27;;;5.97;;
1454;SDS011;721;48.168;12.818;2022-08-18T12:51:35;6.50;;;6.00;;
1454;SDS011;721;48.168;12.818;2022-08-18T12:54:02;7.30;;;6.60;;
1454;SDS011;721;48.168;12.818;2022-08-18T12:56:29;7.33;;;6.83;;
1454;SDS011;721;48.168;12.818;2022-08-18T12:58:57;8.00;;;7.40;;
1454;SDS011;721;48.168;12.818;2022-08-18T13:01:26;7.77;;;7.20;;
1454;SDS011;721;48.168;12.818;2022-08-18T13:03:55;7.53;;;6.90;;
1454;SDS011;721;48.168;12.818;2022-08-18T13:06:23;6.20;;;5.80;;
1454;SDS011;721;48.168;12.818;2022-08-18T13:08:50;5.83;;;5.43;;
1454;SDS011;721;48.168;12.818;2022-08-18T13:11:18;6.33;;;5.87;;
1454;SDS011;721;48.168;12.818;2022-08-18T13:13:46;6.70;;;6.00;;
1454;SDS011;721;48.168;12.818;2022-08-18T13:16:14;6.40;;;5.97;;
1454;SDS011;721;48.168;12.818;2022-08-18T13:18:42;7.63;;;6.73;;
1454;SDS011;721;48.168;12.818;2022-08-18T13:21:13;6.93;;;6.30;;
1454;SDS011;721;48.168;12.818;2022-08-18T13:23:42;6.43;;;5.90;;
1454;SDS011;721;48.168;12.818;2022-08-18T13:26:11;6.47;;;5.93;;
1454;SDS011;721;48.168;12.818;2022-08-18T13:28:41;5.80;;;5.30;;
1454;SDS011;721;48.168;12.818;2022-08-18T13:31:08;7.17;;;6.47;;
1454;SDS011;721;48.168;12.818;2022-08-18T13:33:34;8.20;;;6.10;;
1454;SDS011;721;48.168;12.818;2022-08-18T13:36:01;6.20;;;5.80;;
1454;SDS011;721;48.168;12.818;2022-08-18T13:38:30;9.40;;;5.90;;
1454;SDS011;721;48.168;12.818;2022-08-18T13:40:57;5.70;;;5.30;;
1454;SDS011;721;48.168;12.818;2022-08-18T13:43:26;5.70;;;5.30;;
1454;SDS011;721;48.168;12.818;2022-08-18T13:45:57;5.87;;;5.47;;
1454;SDS011;721;48.168;12.818;2022-08-18T13:48:25;6.23;;;5.73;;
1454;SDS011;721;48.168;12.818;2022-08-18T13:50:52;6.13;;;5.53;;
1454;SDS011;721;48.168;12.818;2022-08-18T13:53:20;8.77;;;6.73;;
1454;SDS011;721;48.168;12.818;2022-08-18T13:55:49;6.37;;;5.87;;
1454;SDS011;721;48.168;12.818;2022-08-18T13:58:16;6.60;;;5.93;;
1454;SDS011;721;48.168;12.818;2022-08-18T14:00:43;6.73;;;6.13;;
1454;SDS011;721;48.168;12.818;2022-08-18T14:03:10;6.77;;;6.07;;
1454;SDS011;721;48.168;12.818;2022-08-18T14:05:38;6.97;;;6.50;;
1454;SDS011;721;48.168;12.818;2022-08-18T14:08:04;5.80;;;5.30;;
1454;SDS011;721;48.168;12.818;2022-08-18T14:10:31;6.73;;;6.20;;
1454;SDS011;721;48.168;12.818;2022-08-18T14:12:59;6.03;;;5.53;;
1454;SDS011;721;48.168;12.818;2022-08-18T14:15:27;6.13;;;5.73;;
1454;SDS011;721;48.168;12.818;2022-08-18T14:17:55;5.60;;;5.30;;
1454;SDS011;721;48.168;12.818;2022-08-18T14:20:22;7.40;;;6.80;;
1454;SDS011;721;48.168;12.818;2022-08-18T14:23:06;5.63;;;5.17;;
1454;SDS011;721;48.168;12.818;2022-08-18T14:25:51;5.70;;;5.30;;
1454;SDS011;721;48.168;12.818;2022-08-18T14:28:36;5.77;;;5.30;;
1454;SDS011;721;48.168;12.818;2022-08-18T14:31:03;6.20;;;5.70;;
1454;SDS011;721;48.168;12.818;2022-08-18T14:33:31;6.53;;;6.03;;
1454;SDS011;721;48.168;12.818;2022-08-18T14:35:59;7.13;;;5.57;;
1454;SDS011;721;48.168;12.818;2022-08-18T14:38:27;5.50;;;5.00;;
1454;SDS011;721;48.168;12.818;2022-08-18T14:40:54;6.77;;;6.37;;
1454;SDS011;721;48.168;12.818;2022-08-18T14:43:22;5.90;;;5.50;;
1454;SDS011;721;48.168;12.818;2022-08-18T14:45:50;6.07;;;5.57;;
1454;SDS011;721;48.168;12.818;2022-08-18T14:48:19;7.07;;;5.53;;
1454;SDS011;721;48.168;12.818;2022-08-18T14:50:48;6.77;;;6.17;;
1454;SDS011;721;48.168;12.818;2022-08-18T14:53:16;6.80;;;6.30;;
1454;SDS011;721;48.168;12.818;2022-08-18T14:55:45;6.50;;;6.00;;
1454;SDS011;721;48.168;12.818;2022-08-18T14:58:12;6.10;;;5.60;;
1454;SDS011;721;48.168;12.818;2022-08-18T15:00:39;6.50;;;5.90;;
1454;SDS011;721;48.168;12.818;2022-08-18T15:03:07;5.43;;;5.00;;
1454;SDS011;721;48.168;12.818;2022-08-18T15:05:34;6.30;;;5.87;;
1454;SDS011;721;48.168;12.818;2022-08-18T15:08:01;5.73;;;4.60;;
1454;SDS011;721;48.168;12.818;2022-08-18T15:10:29;5.30;;;4.50;;
1454;SDS011;721;48.168;12.818;2022-08-18T15:12:57;5.53;;;5.13;;
1454;SDS011;721;48.168;12.818;2022-08-18T15:15:25;6.50;;;5.33;;
1454;SDS011;721;48.168;12.818;2022-08-18T15:17:52;5.33;;;4.93;;
1454;SDS011;721;48.168;12.818;2022-08-18T15:20:21;4.50;;;4.10;;
1454;SDS011;721;48.168;12.818;2022-08-18T15:22:49;4.90;;;4.50;;
1454;SDS011;721;48.168;12.818;2022-08-18T15:25:34;5.83;;;5.30;;
1454;SDS011;721;48.168;12.818;2022-08-18T15:28:10;5.77;;;5.37;;
1454;SDS011;721;48.168;12.818;2022-08-18T15:30:41;5.13;;;4.83;;
1454;SDS011;721;48.168;12.818;2022-08-18T15:33:09;6.33;;;5.83;;
1454;SDS011;721;48.168;12.818;2022-08-18T15:35:39;6.10;;;5.60;;
1454;SDS011;721;48.168;12.818;2022-08-18T15:38:06;5.80;;;5.30;;
1454;SDS011;721;48.168;12.818;2022-08-18T15:40:33;5.70;;;5.20;;
1454;SDS011;721;48.168;12.818;2022-08-18T15:43:00;5.63;;;5.23;;
1454;SDS011;721;48.168;12.818;2022-08-18T15:45:33;6.00;;;5.40;;
1454;SDS011;721;48.168;12.818;2022-08-18T15:48:03;6.93;;;5.93;;
1454;SDS011;721;48.168;12.818;2022-08-18T15:50:30;5.90;;;5.43;;
1454;SDS011;721;48.168;12.818;2022-08-18T15:53:00;5.40;;;5.00;;
1454;SDS011;721;48.168;12.818;2022-08-18T15:55:29;5.60;;;5.20;;
1454;SDS011;721;48.168;12.818;2022-08-18T15:57:58;6.37;;;5.70;;
1454;SDS011;721;48.168;12.818;2022-08-18T16:00:26;8.63;;;6.40;;
1454;SDS011;721;48.168;12.818;2022-08-18T16:02:57;5.50;;;5.10;;
1454;SDS011;721;48.168;12.818;2022-08-18T16:05:26;5.57;;;5.17;;
1454;SDS011;721;48.168;12.818;2022-08-18T16:07:56;5.73;;;5.33;;
1454;SDS011;721;48.168;12.818;2022-08-18T16:10:27;5.67;;;5.27;;
1454;SDS011;721;48.168;12.818;2022-08-18T16:12:57;7.20;;;6.60;;
1454;SDS011;721;48.168;12.818;2022-08-18T16:15:25;6.23;;;5.70;;
1454;SDS011;721;48.168;12.818;2022-08-18T16:17:53;6.77;;;6.17;;
1454;SDS011;721;48.168;12.818;2022-08-18T16:20:21;7.00;;;6.40;;